Time;durP1;ratioP1;P1;durP2;ratioP2;P2;SDS_P1;SDS_P2;PMS_P1;PMS_P2;Temp;Humidity;BMP_temperature;BMP_pressure;BME280_temperature;BME280_humidity;BME280_pressure;Samples;Min_cycle;Max_cycle;Signal;HPM_P1;HPM_P2
2022/07/15 00:00:46;;;;;;;2.10;1.90;;;24.50;71.00;;;;;;6120643;28;81030;-66
2022/07/15 00:03:47;;;;;;;1.90;1.65;;;24.40;70.90;;;;;;6111726;28;81207;-66
2022/07/15 00:06:47;;;;;;;3.30;2.20;;;24.50;70.90;;;;;;6115029;28;80881;-66
2022/07/15 00:13:07;;;;;;;3.10;2.15;;;24.40;70.80;;;;;;6102035;28;80526;-65
2022/07/15 00:16:07;;;;;;;2.40;2.15;;;24.40;70.80;;;;;;6111752;28;80517;-65
2022/07/15 00:19:08;;;;;;;7.53;2.00;;;24.50;70.80;;;;;;6112633;28;80418;-66
2022/07/15 00:22:08;;;;;;;2.80;2.05;;;24.40;70.80;;;;;;6117253;28;86955;-66
2022/07/15 00:25:09;;;;;;;4.57;2.33;;;24.40;70.80;;;;;;6125755;28;80662;-67
2022/07/15 00:28:09;;;;;;;2.08;1.85;;;24.50;70.60;;;;;;6115382;28;80698;-66
2022/07/15 00:31:10;;;;;;;2.28;2.00;;;24.40;70.60;;;;;;6116165;28;84761;-67
2022/07/15 00:34:10;;;;;;;1.95;1.75;;;24.50;70.40;;;;;;6113585;28;80522;-66
2022/07/15 00:37:11;;;;;;;2.33;1.77;;;24.50;70.30;;;;;;6113321;28;81536;-66
2022/07/15 00:40:12;;;;;;;2.25;2.05;;;24.50;70.20;;;;;;6113034;28;81905;-66
2022/07/15 00:43:12;;;;;;;3.88;1.90;;;24.50;70.20;;;;;;6126072;28;80186;-66
2022/07/15 00:46:13;;;;;;;2.83;2.05;;;24.50;70.10;;;;;;6112984;28;80532;-66
2022/07/15 00:49:13;;;;;;;2.00;1.80;;;24.50;70.00;;;;;;6106780;28;80471;-66
2022/07/15 00:52:14;;;;;;;1.77;1.63;;;24.50;69.80;;;;;;6122159;28;80280;-65
2022/07/15 00:55:15;;;;;;;3.63;1.90;;;24.50;69.70;;;;;;6114553;28;80307;-66
2022/07/15 00:58:15;;;;;;;1.90;1.70;;;24.50;69.60;;;;;;6114385;28;81829;-66
2022/07/15 01:01:16;;;;;;;3.17;2.05;;;24.50;69.60;;;;;;6119011;28;81742;-66
2022/07/15 01:04:17;;;;;;;2.92;2.08;;;24.50;69.60;;;;;;6111962;28;83317;-66
2022/07/15 01:07:17;;;;;;;2.28;2.03;;;24.50;69.60;;;;;;6114113;28;80204;-66
2022/07/15 01:10:18;;;;;;;2.08;1.60;;;24.50;69.60;;;;;;6112728;28;83692;-66
2022/07/15 01:13:22;;;;;;;3.38;2.05;;;24.50;69.60;;;;;;6112446;28;83472;-66
2022/07/15 01:16:23;;;;;;;2.65;1.80;;;24.40;69.70;;;;;;6119212;28;82905;-66
2022/07/15 01:19:23;;;;;;;3.90;1.85;;;24.50;69.70;;;;;;6112606;28;83334;-66
2022/07/15 01:22:24;;;;;;;2.22;2.00;;;24.40;69.60;;;;;;6112707;28;80805;-66
2022/07/15 01:25:26;;;;;;;2.92;2.05;;;24.50;69.60;;;;;;6112028;28;83412;-67
2022/07/15 01:28:26;;;;;;;2.22;2.03;;;24.50;69.60;;;;;;6112048;28;83146;-67
2022/07/15 01:31:28;;;;;;;2.58;1.77;;;24.50;69.60;;;;;;6117205;28;83280;-66
2022/07/15 01:34:29;;;;;;;4.43;1.58;;;24.50;69.40;;;;;;6116064;28;82451;-66
2022/07/15 01:37:30;;;;;;;4.53;2.58;;;24.50;69.40;;;;;;6111366;28;81891;-66
2022/07/15 01:40:32;;;;;;;2.03;1.85;;;24.50;69.30;;;;;;6111530;28;82862;-65
2022/07/15 01:43:33;;;;;;;1.90;1.80;;;24.50;69.40;;;;;;6111389;28;83047;-66
2022/07/15 01:46:34;;;;;;;2.53;1.58;;;24.50;70.10;;;;;;6107315;28;83098;-66
2022/07/15 01:49:34;;;;;;;1.90;1.73;;;24.50;69.50;;;;;;6112166;28;81573;-66
2022/07/15 01:52:47;;;;;;;2.63;1.83;;;24.50;69.40;;;;;;6111050;28;80478;-66
2022/07/15 01:55:47;;;;;;;3.85;2.08;;;24.40;69.30;;;;;;6111335;28;81819;-66
2022/07/15 01:58:48;;;;;;;2.22;1.90;;;24.40;69.40;;;;;;6110782;28;82869;-66
2022/07/15 02:01:49;;;;;;;2.33;1.90;;;24.40;69.30;;;;;;6111085;28;82121;-67
2022/07/15 02:04:52;;;;;;;2.20;2.00;;;24.40;69.30;;;;;;6114731;28;83398;-67
2022/07/15 02:07:53;;;;;;;1.67;1.58;;;24.40;69.20;;;;;;6109053;28;80565;-67
2022/07/15 02:10:55;;;;;;;2.22;2.03;;;24.40;69.20;;;;;;6093040;28;83091;-67
2022/07/15 02:13:58;;;;;;;3.95;1.85;;;24.40;69.10;;;;;;6097825;28;83327;-66
2022/07/15 02:17:01;;;;;;;2.40;1.80;;;24.40;69.00;;;;;;6092740;28;83833;-65
2022/07/15 02:20:09;;;;;;;1.55;1.45;;;24.40;69.00;;;;;;6110978;28;83533;-66
2022/07/15 02:23:10;;;;;;;2.10;1.80;;;24.50;68.90;;;;;;6123008;28;81677;-66
2022/07/15 02:26:10;;;;;;;1.88;1.70;;;24.40;68.80;;;;;;6110147;28;80336;-66
2022/07/15 02:29:11;;;;;;;2.00;1.80;;;24.40;68.80;;;;;;6123314;28;79907;-66
2022/07/15 02:32:11;;;;;;;1.70;1.60;;;24.40;68.70;;;;;;6114058;28;83602;-66
2022/07/15 02:35:16;;;;;;;1.67;1.40;;;24.40;68.80;;;;;;6107697;28;83316;-66
2022/07/15 02:38:17;;;;;;;2.40;1.65;;;24.40;68.80;;;;;;6109322;28;83182;-67
2022/07/15 02:41:18;;;;;;;1.67;1.45;;;24.40;68.70;;;;;;6104663;28;83272;-65
2022/07/15 02:44:21;;;;;;;2.38;1.80;;;24.40;68.70;;;;;;6116950;28;82515;-65
2022/07/15 02:47:23;;;;;;;1.65;1.55;;;24.40;68.70;;;;;;6108947;28;82474;-66
2022/07/15 02:50:23;;;;;;;2.50;1.90;;;24.30;68.70;;;;;;6110708;28;83566;-66
2022/07/15 02:53:28;;;;;;;7.53;2.00;;;24.40;68.80;;;;;;6110299;28;83291;-65
2022/07/15 02:56:30;;;;;;;;;;;24.40;68.70;;;;;;6111430;28;82314;-67
2022/07/15 02:59:30;;;;;;;2.78;1.60;;;24.40;68.70;;;;;;6114307;28;79092;-67
2022/07/15 03:02:33;;;;;;;4.13;2.45;;;24.40;68.50;;;;;;6110277;28;80555;-68
2022/07/15 03:05:39;;;;;;;2.08;1.85;;;24.40;68.60;;;;;;6105960;28;80538;-67
2022/07/15 03:08:39;;;;;;;2.58;1.95;;;24.40;68.60;;;;;;6102554;28;87502;-67
2022/07/15 03:11:40;;;;;;;2.30;1.77;;;24.40;68.60;;;;;;6098444;28;83109;-67
2022/07/15 03:14:41;;;;;;;1.95;1.75;;;24.40;68.60;;;;;;6116078;28;80907;-67
2022/07/15 03:17:42;;;;;;;2.88;2.00;;;24.40;68.50;;;;;;6110038;28;81938;-67
2022/07/15 03:20:45;;;;;;;4.13;2.30;;;24.40;68.60;;;;;;6109274;28;83561;-66
2022/07/15 03:23:46;;;;;;;1.80;1.52;;;24.40;68.60;;;;;;6100591;28;80446;-72
2022/07/15 03:26:46;;;;;;;2.53;1.70;;;24.40;68.60;;;;;;6104794;28;82893;-70
2022/07/15 03:29:49;;;;;;;2.22;2.00;;;24.40;68.60;;;;;;6081974;28;83580;-73
2022/07/15 03:32:50;;;;;;;2.38;1.73;;;24.40;68.70;;;;;;6085570;28;81156;-72
2022/07/15 03:35:51;;;;;;;3.75;2.20;;;24.40;68.70;;;;;;6105404;28;80540;-75
2022/07/15 03:38:55;;;;;;;4.30;2.70;;;24.40;68.70;;;;;;6106654;28;87777;-65
2022/07/15 03:41:55;;;;;;;4.38;3.03;;;24.40;68.70;;;;;;6108125;28;83417;-65
2022/07/15 03:44:57;;;;;;;6.75;3.60;;;24.40;68.70;;;;;;6106302;28;82027;-64
2022/07/15 03:47:59;;;;;;;4.82;3.20;;;24.40;68.60;;;;;;6102125;28;80951;-65
2022/07/15 03:50:59;;;;;;;3.78;2.85;;;24.40;69.20;;;;;;6086690;28;82238;-71
2022/07/15 03:54:00;;;;;;;6.35;3.13;;;24.50;69.00;;;;;;6103798;28;83249;-66
2022/07/15 03:57:00;;;;;;;7.90;3.28;;;24.50;69.10;;;;;;6093485;28;80511;-77
2022/07/15 04:00:01;;;;;;;5.32;2.90;;;24.50;69.40;;;;;;6103920;28;83882;-66
2022/07/15 04:03:01;;;;;;;7.30;2.92;;;24.50;69.30;;;;;;6108588;28;83043;-66
2022/07/15 04:06:02;;;;;;;7.82;3.08;;;24.50;69.30;;;;;;6120274;28;80476;-66
2022/07/15 04:09:02;;;;;;;3.65;2.75;;;24.50;69.60;;;;;;6116123;28;82046;-66
2022/07/15 04:12:04;;;;;;;8.65;3.47;;;24.50;69.70;;;;;;6113224;28;81745;-74
2022/07/15 04:15:04;;;;;;;5.50;3.20;;;24.50;70.10;;;;;;6115387;28;82785;-65
2022/07/15 04:18:06;;;;;;;8.13;3.10;;;24.50;70.10;;;;;;6108953;28;80278;-66
2022/07/15 04:21:06;;;;;;;5.85;3.60;;;24.50;70.20;;;;;;6099473;28;84880;-72
2022/07/15 04:24:07;;;;;;;6.10;3.88;;;24.60;70.70;;;;;;6105722;28;83329;-72
2022/07/15 04:27:08;;;;;;;7.70;3.33;;;24.50;70.80;;;;;;6111096;28;80637;-76
2022/07/15 04:30:08;;;;;;;6.93;3.40;;;24.50;70.80;;;;;;6108530;28;82251;-64
2022/07/15 04:33:16;;;;;;;4.78;3.10;;;24.60;70.70;;;;;;6098116;28;82794;-71
2022/07/15 04:36:17;;;;;;;4.43;3.60;;;24.60;70.60;;;;;;6096667;28;83138;-65
2022/07/15 04:39:18;;;;;;;5.45;3.90;;;24.60;70.50;;;;;;6108881;28;81942;-66
2022/07/15 04:42:18;;;;;;;8.43;3.50;;;24.60;70.60;;;;;;6105573;28;83162;-66
2022/07/15 04:45:19;;;;;;;6.07;4.20;;;24.60;70.60;;;;;;6101590;28;81360;-65
2022/07/15 04:51:39;;;;;;;14.15;4.18;;;24.70;70.70;;;;;;6103575;28;87701;-76
2022/07/15 04:54:41;;;;;;;5.93;4.43;;;24.60;70.60;;;;;;6106643;28;82931;-75
2022/07/15 04:57:42;;;;;;;9.52;4.70;;;24.60;70.30;;;;;;6108179;28;83282;-67
2022/07/15 05:00:44;;;;;;;14.55;4.93;;;24.60;70.40;;;;;;6107428;28;82903;-67
2022/07/15 05:03:46;;;;;;;9.80;5.30;;;24.60;69.90;;;;;;6110429;28;83303;-67
2022/07/15 05:06:48;;;;;;;14.27;5.35;;;24.60;69.90;;;;;;6105608;28;82713;-67
2022/07/15 05:09:48;;;;;;;9.48;5.85;;;24.60;69.50;;;;;;6106561;28;80502;-66
2022/07/15 05:12:49;;;;;;;9.25;5.80;;;24.60;69.10;;;;;;6098814;28;80845;-66
2022/07/15 05:15:49;;;;;;;9.60;5.93;;;24.60;68.70;;;;;;6111579;28;83372;-66
2022/07/15 05:18:55;;;;;;;11.32;7.60;;;24.70;68.40;;;;;;6111244;28;83071;-66
2022/07/15 05:21:55;;;;;;;10.85;7.03;;;24.60;67.80;;;;;;6111817;28;82207;-66
2022/07/15 05:24:56;;;;;;;10.23;6.65;;;24.60;67.70;;;;;;6112025;28;82751;-65
2022/07/15 05:27:58;;;;;;;15.80;9.10;;;24.60;67.20;;;;;;6105522;28;83099;-65
2022/07/15 05:30:58;;;;;;;17.85;8.65;;;24.50;66.10;;;;;;6107840;28;82313;-65
2022/07/15 05:33:59;;;;;;;13.55;8.10;;;24.40;66.30;;;;;;6098325;28;82938;-65
2022/07/15 05:37:00;;;;;;;10.20;7.78;;;24.40;66.10;;;;;;6093632;28;82740;-65
2022/07/15 05:40:01;;;;;;;8.65;7.38;;;24.40;65.60;;;;;;6079351;28;83215;-66
2022/07/15 05:43:06;;;;;;;12.27;7.70;;;24.40;65.00;;;;;;6106738;28;83833;-65
2022/07/15 05:46:10;;;;;;;19.30;7.85;;;24.30;64.60;;;;;;6107020;28;83191;-65
2022/07/15 05:49:20;;;;;;;10.38;8.05;;;24.30;64.70;;;;;;6104336;28;82498;-64
2022/07/15 05:52:21;;;;;;;9.43;6.57;;;24.30;64.00;;;;;;6106925;28;82947;-65
2022/07/15 05:55:23;;;;;;;19.58;7.25;;;24.30;64.50;;;;;;6104415;28;83364;-65
2022/07/15 05:58:24;;;;;;;9.90;6.22;;;24.40;64.10;;;;;;6106249;28;82569;-66
2022/07/15 06:01:25;;;;;;;10.00;6.45;;;24.40;63.90;;;;;;6105797;28;83272;-65
2022/07/15 06:04:27;;;;;;;12.98;6.55;;;24.30;63.30;;;;;;6108718;28;82227;-64
2022/07/15 06:07:27;;;;;;;11.52;6.22;;;24.30;63.00;;;;;;6107422;28;83163;-64
2022/07/15 06:10:29;;;;;;;10.55;5.82;;;24.00;63.10;;;;;;6113649;28;83326;-64
2022/07/15 06:13:30;;;;;;;9.48;6.18;;;24.00;63.30;;;;;;6097593;28;83422;-64
2022/07/15 06:16:31;;;;;;;12.35;7.18;;;24.10;63.30;;;;;;6099389;28;81738;-64
2022/07/15 06:19:32;;;;;;;12.68;6.55;;;24.10;63.60;;;;;;6112612;28;83223;-64
2022/07/15 06:22:34;;;;;;;11.40;6.47;;;23.60;63.80;;;;;;6110561;28;83436;-65
2022/07/15 06:25:35;;;;;;;12.85;6.35;;;23.70;64.30;;;;;;6124458;28;83239;-64
2022/07/15 06:28:36;;;;;;;22.27;7.22;;;23.70;64.10;;;;;;6099471;28;80424;-65
2022/07/15 06:31:36;;;;;;;10.65;5.97;;;23.50;64.80;;;;;;6113495;28;82123;-65
2022/07/15 06:34:37;;;;;;;9.65;5.93;;;23.60;64.90;;;;;;6111009;28;83530;-65
2022/07/15 06:37:38;;;;;;;10.60;6.40;;;23.80;64.30;;;;;;6111827;28;83108;-65
2022/07/15 06:40:39;;;;;;;10.02;5.18;;;23.80;64.10;;;;;;6101401;28;81484;-64
2022/07/15 06:43:40;;;;;;;6.65;4.88;;;23.90;63.70;;;;;;6109659;28;83071;-65
2022/07/15 06:46:45;;;;;;;11.02;5.18;;;24.00;63.40;;;;;;6110472;28;83497;-65
2022/07/15 06:49:45;;;;;;;8.18;4.70;;;24.00;62.80;;;;;;6119897;28;80680;-64
2022/07/15 06:52:46;;;;;;;8.00;4.78;;;24.00;61.90;;;;;;6115149;28;83008;-64
2022/07/15 06:55:46;;;;;;;12.07;5.93;;;23.90;61.60;;;;;;6115722;28;82292;-64
2022/07/15 06:58:47;;;;;;;8.98;5.07;;;23.90;62.00;;;;;;6102378;28;83421;-64
2022/07/15 07:01:47;;;;;;;9.85;3.83;;;23.90;62.00;;;;;;6111472;28;80320;-64
2022/07/15 07:04:48;;;;;;;8.15;3.33;;;23.90;59.00;;;;;;6109474;28;83439;-64
2022/07/15 07:07:49;;;;;;;8.50;2.80;;;24.00;57.00;;;;;;6109073;28;80640;-64
2022/07/15 07:10:49;;;;;;;3.83;2.47;;;24.00;56.40;;;;;;6110896;28;83106;-64
2022/07/15 07:13:50;;;;;;;4.63;2.55;;;23.90;55.90;;;;;;6116993;28;80588;-65
2022/07/15 07:16:50;;;;;;;9.38;2.97;;;23.90;55.30;;;;;;6111006;28;80628;-65
2022/07/15 07:19:51;;;;;;;3.90;2.58;;;24.00;55.30;;;;;;6110875;28;80452;-66
2022/07/15 07:22:51;;;;;;;4.97;2.38;;;24.00;55.20;;;;;;6111259;28;80451;-65
2022/07/15 07:25:51;;;;;;;4.60;2.15;;;23.90;55.00;;;;;;6112835;28;80301;-65
2022/07/15 07:28:52;;;;;;;2.72;1.98;;;23.90;54.30;;;;;;6114614;28;80860;-66
2022/07/15 07:31:52;;;;;;;3.40;1.55;;;24.00;54.00;;;;;;6118222;28;82403;-65
2022/07/15 07:34:53;;;;;;;4.00;1.70;;;23.90;52.80;;;;;;6109440;28;81223;-65
2022/07/15 07:37:53;;;;;;;4.30;1.60;;;24.00;52.50;;;;;;6118605;28;80328;-65
2022/07/15 07:40:54;;;;;;;4.72;1.73;;;23.90;51.90;;;;;;6110770;28;80361;-65
2022/07/15 07:43:54;;;;;;;5.43;1.77;;;23.90;51.80;;;;;;6112260;28;81464;-64
2022/07/15 07:46:55;;;;;;;2.78;1.52;;;24.00;51.60;;;;;;6115546;28;80594;-67
2022/07/15 07:49:55;;;;;;;4.72;2.15;;;24.00;51.00;;;;;;6109718;28;80342;-68
2022/07/15 07:52:56;;;;;;;6.03;2.20;;;24.00;50.20;;;;;;6109453;28;80628;-65
2022/07/15 07:55:56;;;;;;;7.38;1.58;;;23.90;48.80;;;;;;6109956;28;80002;-66
2022/07/15 07:58:57;;;;;;;2.75;1.52;;;23.90;49.00;;;;;;6109672;28;81351;-65
2022/07/15 08:01:57;;;;;;;5.47;1.50;;;23.90;49.10;;;;;;6109601;28;81129;-63
2022/07/15 08:04:58;;;;;;;9.68;1.73;;;23.90;48.60;;;;;;6115982;28;80439;-65
2022/07/15 08:07:58;;;;;;;8.57;1.52;;;24.00;48.50;;;;;;6110894;28;81444;-63
2022/07/15 08:10:58;;;;;;;5.60;2.00;;;24.00;49.20;;;;;;6101045;28;80643;-64
2022/07/15 08:13:59;;;;;;;4.38;1.83;;;23.90;49.20;;;;;;6106794;28;80587;-74
2022/07/15 08:16:59;;;;;;;7.47;1.33;;;23.90;49.10;;;;;;6110939;28;80235;-64
2022/07/15 08:20:00;;;;;;;2.90;1.67;;;23.90;49.30;;;;;;6108527;28;81730;-63
2022/07/15 08:23:01;;;;;;;5.53;2.40;;;23.90;49.10;;;;;;6110488;28;81724;-64
2022/07/15 08:26:01;;;;;;;4.45;2.08;;;23.80;49.50;;;;;;6110609;28;80458;-64
2022/07/15 08:29:02;;;;;;;5.53;2.40;;;23.80;49.90;;;;;;6102703;28;81453;-65
2022/07/15 08:32:02;;;;;;;11.30;2.75;;;23.90;50.40;;;;;;6108533;28;81752;-67
2022/07/15 08:35:03;;;;;;;5.25;2.20;;;23.90;50.30;;;;;;6110751;28;81718;-66
2022/07/15 08:38:05;;;;;;;3.60;2.10;;;23.90;50.70;;;;;;6103247;28;81378;-65
2022/07/15 08:41:05;;;;;;;6.60;2.42;;;23.90;51.10;;;;;;6093453;28;80918;-66
2022/07/15 08:44:06;;;;;;;5.60;2.80;;;23.90;51.00;;;;;;6105533;28;80511;-64
2022/07/15 08:47:06;;;;;;;7.65;2.25;;;23.90;51.40;;;;;;6113266;28;80353;-65
2022/07/15 08:50:07;;;;;;;4.80;2.47;;;24.00;51.70;;;;;;6104357;28;81589;-64
2022/07/15 08:53:07;;;;;;;7.65;2.38;;;24.00;51.90;;;;;;6108647;28;80727;-64
2022/07/15 08:56:08;;;;;;;5.45;2.13;;;24.00;52.20;;;;;;6108058;28;80628;-64
2022/07/15 08:59:08;;;;;;;5.30;2.30;;;24.00;51.40;;;;;;6099617;28;80516;-64
2022/07/15 09:02:10;;;;;;;8.30;2.20;;;23.90;50.50;;;;;;6111479;28;80213;-64
2022/07/15 09:05:11;;;;;;;3.25;2.20;;;23.90;50.60;;;;;;6111144;28;80620;-64
2022/07/15 09:08:11;;;;;;;9.38;3.00;;;24.00;50.60;;;;;;6101836;28;81138;-64
2022/07/15 09:11:12;;;;;;;5.18;2.33;;;24.00;50.90;;;;;;6111726;28;80467;-65
2022/07/15 09:14:12;;;;;;;8.25;2.17;;;24.10;51.30;;;;;;6113602;28;81595;-65
2022/07/15 09:17:13;;;;;;;4.60;2.22;;;24.00;50.90;;;;;;6111766;28;80627;-66
2022/07/15 09:20:14;;;;;;;5.20;2.80;;;24.10;51.00;;;;;;6111289;28;80890;-65
2022/07/15 09:23:20;;;;;;;8.65;4.03;;;24.10;50.90;;;;;;6112716;28;80923;-65
2022/07/15 09:26:21;;;;;;;13.05;4.13;;;24.20;50.90;;;;;;6124226;28;80795;-65
2022/07/15 09:36:03;;;;;;;6.60;2.28;;;24.30;50.90;;;;;;6109765;28;80133;-65
2022/07/15 09:39:04;;;;;;;2.92;2.00;;;24.30;50.60;;;;;;6109110;28;80292;-65
2022/07/15 09:42:04;;;;;;;5.43;2.08;;;24.30;50.80;;;;;;6111386;28;80607;-64
2022/07/15 09:45:05;;;;;;;7.53;2.47;;;24.30;50.60;;;;;;6103185;28;81122;-65
2022/07/15 09:48:06;;;;;;;8.45;2.88;;;24.10;50.20;;;;;;6107208;28;80828;-65
2022/07/15 09:51:07;;;;;;;4.40;2.40;;;24.10;50.40;;;;;;6112701;28;81825;-64
2022/07/15 09:54:07;;;;;;;8.73;2.58;;;24.20;50.40;;;;;;6102871;28;80506;-65
2022/07/15 09:57:08;;;;;;;6.85;2.08;;;24.20;50.70;;;;;;6109479;28;80360;-65
2022/07/15 10:00:08;;;;;;;5.82;2.30;;;24.00;50.80;;;;;;6110633;28;80517;-66
2022/07/15 10:03:09;;;;;;;8.93;2.35;;;24.00;50.70;;;;;;6110670;28;80594;-65
2022/07/15 10:06:09;;;;;;;9.10;3.10;;;24.00;50.50;;;;;;6112890;28;81898;-66
2022/07/15 10:09:10;;;;;;;4.38;2.40;;;24.00;50.50;;;;;;6110382;28;80799;-66
2022/07/15 10:12:10;;;;;;;6.40;2.58;;;24.00;50.70;;;;;;6122891;28;80517;-66
2022/07/15 10:15:11;;;;;;;4.15;2.30;;;24.00;50.00;;;;;;6110383;28;81619;-65
2022/07/15 10:18:11;;;;;;;4.78;2.15;;;24.00;50.00;;;;;;6111223;28;83492;-66
2022/07/15 10:21:12;;;;;;;6.70;1.98;;;24.10;49.50;;;;;;6120606;28;80513;-65
2022/07/15 10:24:12;;;;;;;3.42;1.95;;;24.20;49.00;;;;;;6113342;28;80932;-66
2022/07/15 10:27:13;;;;;;;5.18;2.00;;;24.20;49.80;;;;;;6117076;28;81376;-66
2022/07/15 10:30:13;;;;;;;4.95;2.00;;;24.30;49.80;;;;;;6118679;28;80865;-66
2022/07/15 10:33:14;;;;;;;9.73;2.47;;;24.30;49.60;;;;;;6117651;28;82063;-65
2022/07/15 10:36:15;;;;;;;4.88;2.03;;;24.30;50.10;;;;;;6118006;28;81342;-66
2022/07/15 10:39:15;;;;;;;9.23;2.47;;;24.20;49.80;;;;;;6101091;28;80285;-66
2022/07/15 10:42:16;;;;;;;5.30;2.00;;;24.30;48.50;;;;;;6109312;28;81150;-76
2022/07/15 10:45:16;;;;;;;5.53;2.30;;;24.30;48.30;;;;;;6105162;28;80088;-64
2022/07/15 10:48:17;;;;;;;4.57;1.70;;;24.30;48.80;;;;;;6109868;28;80430;-66
2022/07/15 10:51:17;;;;;;;5.40;2.08;;;24.10;48.90;;;;;;6107876;28;87797;-66
2022/07/15 10:54:18;;;;;;;3.25;1.58;;;24.20;49.40;;;;;;6110188;28;81060;-66
2022/07/15 10:57:20;;;;;;;7.13;2.35;;;24.20;49.40;;;;;;6112120;28;80573;-65
2022/07/15 11:00:20;;;;;;;6.50;1.48;;;24.10;49.30;;;;;;6104858;28;80738;-67
2022/07/15 11:03:21;;;;;;;6.07;1.63;;;24.10;49.30;;;;;;6108387;28;80737;-67
2022/07/15 11:06:21;;;;;;;1.90;1.30;;;24.20;49.00;;;;;;6110055;28;80827;-67
2022/07/15 11:09:22;;;;;;;3.22;1.60;;;24.30;48.90;;;;;;6100408;28;81724;-66
2022/07/15 11:12:22;;;;;;;6.50;2.13;;;24.30;48.50;;;;;;6106367;28;80438;-65
2022/07/15 11:15:23;;;;;;;1.83;1.30;;;24.40;48.50;;;;;;6110195;28;85107;-65
2022/07/15 11:18:24;;;;;;;2.67;1.60;;;24.50;48.50;;;;;;6094438;28;80502;-65
2022/07/15 11:21:24;;;;;;;4.40;1.75;;;24.50;47.90;;;;;;6092223;28;80082;-65
2022/07/15 11:24:25;;;;;;;14.48;2.00;;;24.40;48.00;;;;;;6102964;28;80141;-66
2022/07/15 11:27:25;;;;;;;3.58;1.90;;;24.50;48.30;;;;;;6110545;28;80683;-65
2022/07/15 11:30:26;;;;;;;3.15;1.50;;;24.50;48.20;;;;;;6115557;28;80317;-66
2022/07/15 11:33:26;;;;;;;3.20;1.98;;;24.50;48.20;;;;;;6107450;28;80011;-66
2022/07/15 11:36:27;;;;;;;3.30;2.10;;;24.60;48.80;;;;;;6105000;28;80519;-66
2022/07/15 11:39:27;;;;;;;7.95;2.58;;;24.50;48.90;;;;;;6106966;28;80126;-66
2022/07/15 11:45:47;;;;;;;4.32;2.30;;;24.60;47.20;;;;;;6102521;28;80765;-66
2022/07/15 11:48:47;;;;;;;5.95;2.65;;;24.60;48.60;;;;;;6104414;28;80378;-66
2022/07/15 11:51:48;;;;;;;3.78;2.25;;;24.60;48.50;;;;;;6107462;28;83170;-66
2022/07/15 11:54:48;;;;;;;9.50;1.98;;;24.60;48.10;;;;;;6090691;28;80491;-66
2022/07/15 11:57:51;;;;;;;4.80;1.50;;;24.50;47.80;;;;;;6100452;28;80734;-65
2022/07/15 12:00:52;;;;;;;6.10;1.50;;;24.50;47.70;;;;;;6108439;28;80857;-65
2022/07/15 12:03:52;;;;;;;4.80;2.05;;;24.50;46.90;;;;;;6106013;28;80983;-63
2022/07/15 12:06:52;;;;;;;5.57;2.90;;;24.60;46.60;;;;;;6104619;28;80760;-63
2022/07/15 12:09:53;;;;;;;13.02;3.80;;;24.60;47.50;;;;;;6095868;28;80678;-64
2022/07/15 12:12:54;;;;;;;15.32;2.70;;;24.50;49.20;;;;;;6095329;28;80535;-65
2022/07/15 12:15:54;;;;;;;11.98;2.78;;;24.50;48.10;;;;;;6102341;28;81308;-66
2022/07/15 12:18:55;;;;;;;4.35;2.33;;;24.60;47.60;;;;;;6109706;28;81571;-66
2022/07/15 12:21:55;;;;;;;2.72;1.80;;;24.60;46.70;;;;;;6109432;28;80949;-66
2022/07/15 12:24:56;;;;;;;2.83;1.73;;;24.50;46.60;;;;;;6112536;28;84024;-66
2022/07/15 12:27:56;;;;;;;8.10;1.67;;;24.50;47.20;;;;;;6109810;28;80450;-66
2022/07/15 12:30:57;;;;;;;7.55;2.08;;;24.60;47.90;;;;;;6105364;28;80856;-65
2022/07/15 12:33:57;;;;;;;5.57;1.90;;;24.60;47.80;;;;;;6106773;28;80584;-70
2022/07/15 12:36:58;;;;;;;4.00;2.50;;;24.60;45.90;;;;;;6110040;28;80950;-67
2022/07/15 12:39:58;;;;;;;3.88;1.42;;;24.60;46.60;;;;;;6104968;28;84463;-64
2022/07/15 12:43:00;;;;;;;5.05;1.65;;;24.70;47.30;;;;;;6105577;28;80598;-66
2022/07/15 12:46:02;;;;;;;2.97;1.50;;;24.70;46.30;;;;;;6118704;28;80356;-66
2022/07/15 12:49:02;;;;;;;6.82;1.77;;;24.60;45.60;;;;;;6106986;28;80549;-66
2022/07/15 12:52:03;;;;;;;5.65;1.60;;;24.60;45.10;;;;;;6106722;28;80316;-67
2022/07/15 12:55:03;;;;;;;1.70;1.30;;;24.50;45.50;;;;;;6112545;28;80904;-66
2022/07/15 12:58:04;;;;;;;4.95;1.20;;;24.50;45.20;;;;;;6111239;28;81347;-67
2022/07/15 13:01:04;;;;;;;1.50;1.10;;;24.60;45.30;;;;;;6106154;28;80378;-66
2022/07/15 13:04:05;;;;;;;2.33;1.20;;;24.50;44.90;;;;;;6114202;28;81268;-66
2022/07/15 13:07:05;;;;;;;2.20;1.27;;;24.40;44.70;;;;;;6111899;28;80601;-65
2022/07/15 13:10:06;;;;;;;3.47;1.80;;;24.40;44.40;;;;;;6115088;28;80622;-66
2022/07/15 13:13:06;;;;;;;5.43;2.15;;;24.40;44.90;;;;;;6124075;28;80817;-64
2022/07/15 13:16:07;;;;;;;5.82;1.98;;;24.40;45.00;;;;;;6119297;28;80943;-76
2022/07/15 13:19:07;;;;;;;4.53;1.50;;;24.40;45.10;;;;;;6121819;28;81078;-66
2022/07/15 13:22:08;;;;;;;1.65;1.40;;;24.40;45.20;;;;;;6122680;28;80717;-66
2022/07/15 13:25:08;;;;;;;3.10;1.48;;;24.40;45.20;;;;;;6090950;28;87762;-66
2022/07/15 13:28:09;;;;;;;3.13;1.50;;;24.40;45.10;;;;;;6097827;28;80457;-67
2022/07/15 13:31:10;;;;;;;7.72;2.63;;;24.50;44.90;;;;;;6107679;28;80486;-65
2022/07/15 13:34:10;;;;;;;7.15;2.63;;;24.50;45.10;;;;;;6108396;28;80746;-64
2022/07/15 13:37:11;;;;;;;4.38;2.25;;;24.50;46.00;;;;;;6105381;28;80847;-65
2022/07/15 13:40:11;;;;;;;4.82;1.95;;;24.50;45.40;;;;;;6111785;28;80584;-65
2022/07/15 13:43:12;;;;;;;4.47;1.90;;;24.60;45.10;;;;;;6112241;28;81002;-65
2022/07/15 13:46:12;;;;;;;5.28;1.48;;;24.60;45.50;;;;;;6109495;28;80824;-66
2022/07/15 13:49:13;;;;;;;2.58;1.40;;;24.60;45.20;;;;;;6094325;28;80363;-66
2022/07/15 13:52:13;;;;;;;2.88;1.80;;;24.60;44.60;;;;;;6093965;28;80731;-66
2022/07/15 13:55:14;;;;;;;2.30;1.55;;;24.60;45.10;;;;;;6097597;28;81321;-66
2022/07/15 13:58:14;;;;;;;2.22;1.50;;;24.70;44.80;;;;;;6099096;28;80821;-65
2022/07/15 14:01:14;;;;;;;3.60;1.58;;;24.60;44.60;;;;;;6110818;28;83676;-62
2022/07/15 14:04:15;;;;;;;2.00;1.48;;;24.70;44.40;;;;;;6103490;28;80207;-66
2022/07/15 14:07:16;;;;;;;4.32;1.65;;;24.60;44.30;;;;;;6102690;28;80373;-66
2022/07/15 14:10:16;;;;;;;3.05;1.42;;;24.50;43.40;;;;;;6098130;28;80334;-66
2022/07/15 14:13:17;;;;;;;4.57;1.42;;;24.60;43.90;;;;;;6091777;28;80695;-65
2022/07/15 14:16:17;;;;;;;12.55;1.58;;;24.60;43.40;;;;;;6093962;28;81380;-65
2022/07/15 14:19:18;;;;;;;2.28;1.58;;;24.60;43.50;;;;;;6092154;28;81419;-65
2022/07/15 14:22:18;;;;;;;2.50;1.40;;;24.60;44.00;;;;;;6099113;28;80742;-65
2022/07/15 14:25:19;;;;;;;5.43;1.52;;;24.70;44.20;;;;;;6112408;28;80426;-65
2022/07/15 14:28:19;;;;;;;2.42;1.20;;;24.70;44.10;;;;;;6110806;28;80634;-64
2022/07/15 14:31:20;;;;;;;2.08;1.23;;;24.70;44.30;;;;;;6107707;28;81679;-66
2022/07/15 14:34:20;;;;;;;2.58;1.58;;;24.70;44.70;;;;;;6099928;28;80527;-65
2022/07/15 14:37:21;;;;;;;2.13;1.50;;;24.70;44.50;;;;;;6109174;28;80799;-67
2022/07/15 14:40:21;;;;;;;4.60;1.42;;;24.70;43.90;;;;;;6097615;28;80582;-62
2022/07/15 14:43:22;;;;;;;3.63;1.42;;;24.70;43.70;;;;;;6098535;28;81609;-64
2022/07/15 14:46:22;;;;;;;5.90;1.75;;;24.70;42.90;;;;;;6109625;28;80420;-63
2022/07/15 14:49:24;;;;;;;5.57;1.27;;;24.60;43.00;;;;;;6111954;28;80758;-64
2022/07/15 14:52:24;;;;;;;2.10;1.23;;;24.60;43.40;;;;;;6107138;28;80795;-63
2022/07/15 14:55:25;;;;;;;10.35;1.80;;;24.60;43.60;;;;;;6099356;28;80496;-64
2022/07/15 14:58:25;;;;;;;5.20;1.52;;;24.60;43.80;;;;;;6104136;28;80624;-63
2022/07/15 15:01:26;;;;;;;4.15;1.50;;;24.70;43.80;;;;;;6104272;28;80807;-64
2022/07/15 15:04:27;;;;;;;3.50;1.85;;;24.70;43.70;;;;;;6114076;28;80307;-63
2022/07/15 15:07:28;;;;;;;10.00;2.03;;;24.60;43.50;;;;;;6104122;28;80687;-62
2022/07/15 15:10:28;;;;;;;2.17;1.38;;;24.60;43.80;;;;;;6102913;28;80652;-62
2022/07/15 15:13:29;;;;;;;2.88;1.85;;;24.70;44.50;;;;;;6094015;28;80781;-62
2022/07/15 15:16:29;;;;;;;6.03;1.63;;;24.60;43.40;;;;;;6103330;28;80230;-63
2022/07/15 15:19:30;;;;;;;6.22;1.70;;;24.60;44.80;;;;;;6106852;28;80557;-63
2022/07/15 15:22:31;;;;;;;11.80;2.00;;;24.70;45.10;;;;;;6099317;28;81702;-64
2022/07/15 15:28:50;;;;;;;3.13;1.48;;;24.70;46.00;;;;;;6101157;28;80675;-62
2022/07/15 15:31:50;;;;;;;7.85;2.40;;;24.80;46.00;;;;;;6099348;28;80612;-63
2022/07/15 15:34:51;;;;;;;4.10;1.40;;;24.90;45.30;;;;;;6090741;28;81578;-63
2022/07/15 15:37:52;;;;;;;5.15;1.20;;;24.90;44.90;;;;;;6111406;28;80684;-63
2022/07/15 15:40:52;;;;;;;5.75;1.52;;;24.80;45.40;;;;;;6102130;28;80698;-63
2022/07/15 15:43:53;;;;;;;3.65;1.60;;;24.90;45.40;;;;;;6102791;28;80765;-62
2022/07/15 15:46:53;;;;;;;6.53;1.48;;;24.90;45.60;;;;;;6091253;28;80636;-62
2022/07/15 15:49:54;;;;;;;4.75;1.85;;;24.90;44.30;;;;;;6092459;28;80613;-62
2022/07/15 15:52:54;;;;;;;1.30;1.10;;;24.80;44.80;;;;;;6090939;28;82042;-68
2022/07/15 15:55:54;;;;;;;1.75;1.38;;;24.80;45.30;;;;;;6094858;28;80471;-63
2022/07/15 15:58:55;;;;;;;3.90;1.80;;;24.80;46.00;;;;;;6091402;28;80489;-63